Flight Track Log - Related Links

Times and Time Zones

All times are in EDT time to prevent confusion due to time zone crossing. See the UAL4295 flight status page for this flight to view local times or setup timezone preferences in your user account.

Time Position Orientation Groundspeed Altitude Reporting Facility
EDT Latitude Longitude Course Direction KTS MPH feet Rate Location/Type
Wed 07:14:06 PM 40.7500 -74.1167 270° West 219 252 2,700  Level New York TRACON
Wed 07:15:06 PM 40.7833 -74.1833 303° West 258 297 5,100 2,700 Climbing New York TRACON
Wed 07:16:06 PM 40.8000 -74.2667 285° West 254 292 8,100 2,550 Climbing New York TRACON
Wed 07:17:00 PM 40.7584 -74.8084 276° West  Level FlightAware Approximate
Wed 07:17:06 PM 40.8000 -74.3667 270° West 265 305 10,200  Level New York TRACON
Wed 07:18:00 PM 40.7741 -74.9389 294° West  Level FlightAware Approximate
Wed 07:18:12 PM 40.8333 -74.4667 294° West 310 357 11,000  Level New York TRACON
Wed 07:19:00 PM 40.7756 -75.0798 270° West  Level Estimated
Wed 07:19:12 PM 40.8667 -74.5833 291° West 338 389 12,100  Level New York TRACON
Wed 07:19:34 PM 40.8906 -74.6222 309° West 343 395 12,600 1,317 Climbing New York Center
Wed 07:20:34 PM 40.9306 -74.7342 295° West 369 425 13,900 1,240 Climbing New York Center
Wed 07:21:35 PM 40.9056 -74.8564 255° West 347 399 15,100 1,261 Climbing New York Center
Wed 07:22:33 PM 40.8661 -74.9664 245° Southwest 355 409 16,400 1,400 Climbing New York Center
Wed 07:23:35 PM 40.8136 -75.1003 243° Southwest 368 423 17,900 1,131 Climbing New York Center
Wed 07:24:35 PM 40.7736 -75.2239 247° West 374 430 18,700 966 Climbing New York Center
Wed 07:25:33 PM 40.7311 -75.3497 246° West 374 430 19,800 1,100 Climbing New York Center
Wed 07:26:35 PM 40.6889 -75.4728 246° West 374 430 20,900 1,082 Climbing New York Center
Wed 07:27:35 PM 40.6483 -75.6014 247° West 379 436 22,000 1,091 Climbing New York Center
Wed 07:28:36 PM 40.6075 -75.7269 247° West 379 436 23,100 1,109 Climbing New York Center
Wed 07:29:34 PM 40.5625 -75.8550 245° Southwest 379 436 24,200 1,119 Climbing New York Center
Wed 07:30:34 PM 40.5203 -75.9664 244° Southwest 384 442 25,300 1,033 Climbing New York Center
Wed 07:31:36 PM 40.4792 -76.0944 247° West 384 442 26,300 900 Climbing New York Center
Wed 07:32:34 PM 40.4439 -76.2253 251° West 384 442 27,100 807 Climbing New York Center
Wed 07:33:35 PM 40.4108 -76.3536 251° West 384 442 27,900 793 Climbing New York Center
Wed 07:34:35 PM 40.3756 -76.4814 250° West 379 436 28,700 800 Climbing New York Center
Wed 07:35:35 PM 40.3400 -76.6119 250° West 379 436 29,500 807 Climbing New York Center
Wed 07:36:34 PM 40.3044 -76.7397 250° West 379 436 30,300 857 Climbing New York Center
Wed 07:37:34 PM 40.2706 -76.8703 251° West 379 436 31,200 836 Climbing New York Center
Wed 07:38:36 PM 40.2344 -77.0031 250° West 379 436 32,000 800 Climbing New York Center
Wed 07:39:34 PM 40.2006 -77.1331 251° West 384 442 32,800 814 Climbing New York Center
Wed 07:40:34 PM 40.1619 -77.2681 250° West 384 442 33,600 800 Climbing New York Center
Wed 07:41:34 PM 40.1297 -77.3956 252° West 384 442 34,400 778 Climbing New York Center
Wed 07:43:39 PM 40.0736 -77.6664 255° West 374 430 36,000 519 Climbing Cleveland Center
Wed 07:44:39 PM 40.0728 -77.8022 270° West 374 430 36,000  Level Cleveland Center
Wed 07:45:39 PM 40.0683 -77.9622 268° West 390 449 36,000  Level Cleveland Center
Wed 07:46:39 PM 40.0672 -78.1036 269° West 402 463 36,000  Level Cleveland Center
Wed 07:47:39 PM 40.0661 -78.2500 269° West 402 463 36,000  Level Cleveland Center
Wed 07:48:39 PM 40.0650 -78.3994 269° West 407 468 36,000  Level Cleveland Center
Wed 07:49:39 PM 40.0617 -78.5514 268° West 407 468 36,000  Level Cleveland Center
Wed 07:50:39 PM 40.0600 -78.7033 269° West 417 480 36,000  Level Cleveland Center
Wed 07:51:38 PM 40.0583 -78.8553 269° West 423 487 36,000  Level Cleveland Center
Wed 07:52:39 PM 40.0583 -79.0125 270° West 429 494 36,000  Level Cleveland Center
Wed 07:53:39 PM 40.0542 -79.1672 268° West 429 494 36,000  Level Cleveland Center
Wed 07:54:39 PM 40.0558 -79.3164 271° West 423 487 36,000  Level Cleveland Center
Wed 07:55:39 PM 40.0533 -79.4656 269° West 423 487 36,000  Level Cleveland Center
Wed 07:56:39 PM 40.0506 -79.6122 269° West 417 480 36,000  Level Cleveland Center
Wed 07:57:39 PM 40.0453 -79.7533 267° West 405 466 36,000  Level Cleveland Center
Wed 07:58:39 PM 40.0442 -79.9025 269° West 405 466 36,000  Level Cleveland Center
Wed 07:59:39 PM 40.0389 -80.0489 267° West 405 466 36,000  Level Cleveland Center
Wed 08:00:39 PM 40.0372 -80.1981 269° West 405 466 36,000  Level Cleveland Center
Wed 08:01:39 PM 40.0314 -80.3308 267° West 405 466 36,000  Level Cleveland Center
Wed 08:02:39 PM 40.0297 -80.4800 269° West 405 466 36,000  Level Cleveland Center
Wed 08:03:39 PM 40.0256 -80.6292 268° West 405 466 36,000  Level Cleveland Center
Wed 08:04:39 PM 40.0211 -80.7756 268° West 405 466 36,000  Level Cleveland Center
Wed 08:05:39 PM 40.0186 -80.9275 269° West 405 466 36,000  Level Cleveland Center
Wed 08:06:39 PM 40.0161 -81.0764 269° West 405 466 36,000  Level Cleveland Center
Wed 08:07:44 PM 40.0111 -81.2478 268° West 411 473 36,000  Level Indianapolis Center
Wed 08:08:45 PM 40.0078 -81.3992 268° West 412 474 36,000  Level Indianapolis Center
Wed 08:09:47 PM 40.0050 -81.5492 269° West 410 472 36,000  Level Indianapolis Center
Wed 08:10:48 PM 40.0014 -81.7003 268° West 413 475 36,000  Level Indianapolis Center
Wed 08:11:50 PM 39.9983 -81.8622 269° West 411 473 36,000  Level Indianapolis Center
Wed 08:12:51 PM 39.9950 -82.0122 268° West 412 474 36,000  Level Indianapolis Center
Wed 08:13:53 PM 39.9908 -82.1642 268° West 413 475 36,000  Level Indianapolis Center
Wed 08:14:54 PM 39.9875 -82.3144 268° West 411 473 36,000  Level Indianapolis Center
Wed 08:15:55 PM 39.9833 -82.4636 268° West 410 472 36,000  Level Indianapolis Center
Wed 08:16:57 PM 39.9789 -82.6153 268° West 415 478 36,000  Level Indianapolis Center
Wed 08:17:58 PM 39.9744 -82.7656 268° West 412 474 36,000  Level Indianapolis Center
Wed 08:19:00 PM 39.9697 -82.9169 268° West 415 478 36,000  Level Indianapolis Center
Wed 08:20:01 PM 39.9656 -83.0697 268° West 418 481 36,000  Level Indianapolis Center
Wed 08:21:02 PM 39.9628 -83.2219 269° West 419 482 36,000  Level Indianapolis Center
Wed 08:22:04 PM 39.9581 -83.3742 268° West 421 484 36,000  Level Indianapolis Center
Wed 08:23:05 PM 39.9519 -83.5514 267° West 426 490 36,000  Level Indianapolis Center
Wed 08:24:07 PM 39.9456 -83.7050 267° West 428 493 36,000  Level Indianapolis Center
Wed 08:25:08 PM 39.9397 -83.8567 267° West 423 487 36,000 -49 Level Indianapolis Center
Wed 08:26:09 PM 39.9331 -84.0119 267° West 427 491 35,900 -829 Descending Indianapolis Center
Wed 08:27:11 PM 39.9278 -84.1689 268° West 433 498 34,300 -976 Descending Indianapolis Center
Wed 08:28:12 PM 39.9208 -84.3256 267° West 431 496 33,900 -885 Descending Indianapolis Center
Wed 08:29:13 PM 39.9144 -84.4817 267° West 428 493 32,500 -976 Descending Indianapolis Center
Wed 08:30:15 PM 39.9061 -84.6364 266° West 429 494 31,900 -244 Descending Indianapolis Center
Wed 08:31:16 PM 39.8986 -84.7911 266° West 424 488 32,000 49 Climbing Indianapolis Center
Wed 08:32:18 PM 39.8903 -84.9456 266° West 424 488 32,000  Level Indianapolis Center
Wed 08:33:19 PM 39.8822 -85.1267 267° West 426 490 32,000  Level Indianapolis Center
Wed 08:34:20 PM 39.8747 -85.2833 266° West 430 495 32,000  Level Indianapolis Center
Wed 08:35:22 PM 39.8658 -85.4386 266° West 428 493 32,000  Level Indianapolis Center
Wed 08:36:23 PM 39.8575 -85.5947 266° West 427 491 32,000  Level Indianapolis Center
Wed 08:37:25 PM 39.8506 -85.7514 267° West 428 493 32,000  Level Indianapolis Center
Wed 08:38:26 PM 39.8406 -85.9056 265° West 427 491 32,000  Level Indianapolis Center
Wed 08:39:27 PM 39.8197 -86.0419 259° West 423 487 32,000  Level Indianapolis Center
Wed 08:40:29 PM 39.7625 -86.1764 241° Southwest 424 488 32,000  Level Indianapolis Center
Wed 08:41:30 PM 39.6928 -86.3367 241° Southwest 424 488 32,000  Level Indianapolis Center
Wed 08:42:32 PM 39.6344 -86.4706 241° Southwest 424 488 32,000  Level Indianapolis Center
Wed 08:43:33 PM 39.5814 -86.6081 243° Southwest 424 488 32,000  Level Indianapolis Center
Wed 08:44:35 PM 39.5422 -86.7539 251° West 432 497 32,000  Level Indianapolis Center
Wed 08:45:36 PM 39.5186 -86.9044 259° West 427 491 32,000  Level Indianapolis Center
Wed 08:46:37 PM 39.5236 -87.0625 272° West 439 505 32,000  Level Indianapolis Center
Wed 08:47:39 PM 39.5428 -87.2183 279° West 439 505 32,000  Level Indianapolis Center
Wed 08:48:40 PM 39.5636 -87.3739 280° West 439 505 32,000  Level Indianapolis Center
Wed 08:49:41 PM 39.5836 -87.5339 279° West 445 512 32,000  Level Indianapolis Center
Wed 08:50:43 PM 39.6036 -87.6922 279° West 446 513 32,000  Level Indianapolis Center
Wed 08:51:44 PM 39.6292 -87.8836 280° West 447 514 32,000  Level Indianapolis Center
Wed 08:52:45 PM 39.6497 -88.0436 280° West 448 516 32,000  Level Indianapolis Center
Wed 08:53:34 PM 39.6583 -88.1786 275° West 456 525 32,000  Level Kansas City Center
Wed 08:54:37 PM 39.6250 -88.3333 254° West 454 522 32,000  Level Kansas City Center
Wed 08:55:38 PM 39.5858 -88.4867 252° West 449 517 32,000  Level Kansas City Center
Wed 08:56:40 PM 39.5475 -88.6369 252° West 448 516 32,000  Level Kansas City Center
Wed 08:57:40 PM 39.5089 -88.7906 252° West 448 516 32,000  Level Kansas City Center
Wed 08:58:42 PM 39.4697 -88.9447 252° West 449 517 32,000  Level Kansas City Center
Wed 08:59:43 PM 39.4300 -89.0994 252° West 451 519 32,000  Level Kansas City Center
Wed 09:00:44 PM 39.3897 -89.2561 252° West 452 520 32,000  Level Kansas City Center
Wed 09:01:45 PM 39.3503 -89.4078 251° West 449 517 32,000  Level Kansas City Center
Wed 09:02:46 PM 39.3114 -89.5603 252° West 448 516 32,000  Level Kansas City Center
Wed 09:03:50 PM 39.2517 -89.7386 247° West 454 522 32,000  Level Kansas City Center
Wed 09:04:51 PM 39.1797 -89.8817 237° Southwest 450 518 32,000  Level Kansas City Center
Wed 09:05:52 PM 39.1161 -90.0081 237° Southwest 449 517 32,000  Level Kansas City Center
Wed 09:06:52 PM 39.0478 -90.1431 237° Southwest 451 519 32,000  Level Kansas City Center
Wed 09:07:56 PM 38.9808 -90.2764 237° Southwest 449 517 32,000  Level Kansas City Center
Wed 09:08:56 PM 38.9119 -90.4158 238° Southwest 443 510 32,000  Level Kansas City Center
Wed 09:09:57 PM 38.8439 -90.5494 237° Southwest 440 506 32,000 -98 Level Kansas City Center
Wed 09:10:58 PM 38.7683 -90.6925 236° Southwest 438 504 31,800 -576 Descending Kansas City Center
Wed 09:12:02 PM 38.7022 -90.8206 237° Southwest 434 499 30,800 -871 Descending Kansas City Center
Wed 09:13:02 PM 38.6361 -90.9500 237° Southwest 438 504 30,000 -393 Descending Kansas City Center
Wed 09:14:04 PM 38.5678 -91.0833 237° Southwest 447 514 30,000  Level Kansas City Center
Wed 09:15:05 PM 38.4978 -91.2156 236° Southwest 450 518 30,000  Level Kansas City Center
Wed 09:16:06 PM 38.4192 -91.3672 237° Southwest 432 497 30,000 -585 Level Kansas City Center
Wed 09:17:08 PM 38.3556 -91.4869 236° Southwest 431 496 28,800 -1,918 Descending Kansas City Center
Wed 09:18:08 PM 38.2919 -91.6056 236° Southwest 406 467 26,100 -1,355 Descending Kansas City Center
Wed 09:19:12 PM 38.2261 -91.7286 236° Southwest 412 474 26,000 -48 Descending Kansas City Center
Wed 09:20:13 PM 38.1792 -91.8592 245° Southwest 402 463 26,000  Level Kansas City Center
Wed 09:21:14 PM 38.1767 -92.0106 269° West 418 481 26,000  Level Kansas City Center
Wed 09:22:17 PM 38.1708 -92.1675 267° West 428 493 26,000  Level Kansas City Center
Wed 09:23:17 PM 38.1681 -92.3169 269° West 426 490 26,000  Level Kansas City Center
Wed 09:24:20 PM 38.1647 -92.4622 268° West 417 480 26,000  Level Kansas City Center
Wed 09:25:21 PM 38.1594 -92.6272 268° West 395 455 26,000  Level Kansas City Center
Wed 09:26:21 PM 38.1550 -92.7522 267° West 386 444 26,000  Level Kansas City Center
Wed 09:27:22 PM 38.1497 -92.8886 267° West 387 445 26,000  Level Kansas City Center
Wed 09:28:25 PM 38.1450 -93.0258 268° West 388 447 26,000  Level Kansas City Center
Wed 09:29:26 PM 38.1408 -93.1900 268° West 388 447 26,000  Level Kansas City Center
Wed 09:30:27 PM 38.1347 -93.3283 267° West 390 449 26,000  Level Kansas City Center
Wed 09:31:27 PM 38.1311 -93.4647 268° West 388 447 26,000  Level Kansas City Center
Wed 09:32:31 PM 38.1261 -93.6025 267° West 390 449 26,000  Level Kansas City Center
Wed 09:33:31 PM 38.1419 -93.7356 279° West 389 448 26,000 -1,190 Level Kansas City Center
Wed 09:34:32 PM 38.2236 -93.8300 318° Northwest 397 457 23,600 -1,902 Descending Kansas City Center
Wed 09:35:34 PM 38.3017 -93.9189 318° Northwest 382 440 22,100 -1,024 Descending Kansas City Center
Wed 09:36:35 PM 38.3778 -94.0086 317° Northwest 374 430 21,500 -541 Descending Kansas City Center
Wed 09:37:36 PM 38.4633 -94.1069 318° Northwest 395 455 21,000 -1,104 Descending Kansas City Center
Wed 09:38:40 PM 38.5517 -94.2128 317° Northwest 390 449 19,200 -1,824 Descending Kansas City Center
Wed 09:39:41 PM 38.6344 -94.2814 327° Northwest 372 428 17,200 -2,213 Descending Kansas City Center
Wed 09:40:42 PM 38.7367 -94.3450 334° Northwest 364 419 14,700 -2,459 Descending Kansas City Center
Wed 09:41:43 PM 38.8003 -94.4247 316° Northwest 335 386 12,200 -2,459 Descending Kansas City Center
Wed 09:42:44 PM 38.8633 -94.5006 317° Northwest 326 375 9,700 -2,146 Descending Kansas City Center
Wed 09:43:46 PM 38.9297 -94.5819 316° Northwest 293 337 7,800 -1,610 Descending Kansas City Center
Wed 09:44:47 PM 38.9839 -94.6483 316° Northwest 284 327 6,400 -1,180 Descending Kansas City Center
Wed 09:45:48 PM 39.0325 -94.7089 316° Northwest 257 296 5,400 -984 Descending Kansas City Center

Login

Don't have an account? Register now (free) for customized features, flight alerts, and more!